createdAt,value
2018-05-08T00:01:20.521Z,98.60
2018-05-08T00:03:55.057Z,97.90
2018-05-08T00:06:29.372Z,97.70
2018-05-08T00:09:03.067Z,97.70
2018-05-08T00:11:36.640Z,97.70
2018-05-08T00:14:10.144Z,98.10
2018-05-08T00:16:43.680Z,97.70
2018-05-08T00:19:17.264Z,97.70
2018-05-08T00:21:50.787Z,97.70
2018-05-08T00:24:25.141Z,98.80
2018-05-08T00:26:58.727Z,98.70
2018-05-08T00:29:32.526Z,99.20
2018-05-08T00:32:06.084Z,99.20
2018-05-08T00:34:39.684Z,99.30
2018-05-08T00:37:13.269Z,99.80
2018-05-08T00:39:46.904Z,99.90
2018-05-08T00:42:20.528Z,99.90
2018-05-08T00:44:54.077Z,99.90
2018-05-08T00:47:27.629Z,99.50
2018-05-08T00:50:01.907Z,99.90
2018-05-08T00:52:35.669Z,99.90
2018-05-08T00:55:09.299Z,99.90
2018-05-08T00:57:42.887Z,99.90
2018-05-08T01:00:16.475Z,99.90
2018-05-08T01:02:50.144Z,99.90
2018-05-08T01:05:23.719Z,99.90
2018-05-08T01:07:57.222Z,99.90
2018-05-08T01:10:31.541Z,99.90
2018-05-08T01:13:05.076Z,99.90
2018-05-08T01:15:38.666Z,99.90
2018-05-08T01:18:12.959Z,99.90
2018-05-08T01:20:46.523Z,99.90
2018-05-08T01:23:20.091Z,99.90
2018-05-08T01:25:54.354Z,99.90
2018-05-08T01:28:27.968Z,99.90
2018-05-08T01:31:01.561Z,99.90
2018-05-08T01:33:35.157Z,99.90
2018-05-08T01:36:08.708Z,99.90
2018-05-08T01:38:42.377Z,99.90
2018-05-08T01:41:15.953Z,99.90
2018-05-08T01:43:50.298Z,99.90
2018-05-08T01:46:24.016Z,99.90
2018-05-08T01:48:57.562Z,99.90
2018-05-08T01:51:31.128Z,99.90
2018-05-08T01:54:05.620Z,99.90
2018-05-08T01:56:39.217Z,99.90
2018-05-08T01:59:12.828Z,99.90
2018-05-08T02:01:46.429Z,99.90
2018-05-08T02:04:19.955Z,99.90
2018-05-08T02:06:53.539Z,99.90
2018-05-08T02:09:27.221Z,99.90
2018-05-08T02:12:00.734Z,99.90
2018-05-08T02:14:34.253Z,99.90
2018-05-08T02:17:08.534Z,99.90
2018-05-08T02:19:42.251Z,99.90
2018-05-08T02:22:15.836Z,99.90
2018-05-08T02:24:49.343Z,99.90
2018-05-08T02:27:23.658Z,99.90
2018-05-08T02:29:57.354Z,99.90
2018-05-08T02:32:30.894Z,99.90
2018-05-08T02:35:04.459Z,99.90
2018-05-08T02:37:38.066Z,99.90
2018-05-08T02:40:11.629Z,99.90
2018-05-08T02:42:45.297Z,99.90
2018-05-08T02:45:18.874Z,99.90
2018-05-08T02:47:52.433Z,99.90
2018-05-08T02:50:26.075Z,99.90
2018-05-08T02:52:59.678Z,99.90
2018-05-08T02:55:33.233Z,99.90
2018-05-08T02:58:06.878Z,99.90
2018-05-08T03:00:40.644Z,99.90
2018-05-08T03:03:14.188Z,99.90
2018-05-08T03:05:47.728Z,99.90
2018-05-08T03:08:21.355Z,99.90
2018-05-08T03:10:55.682Z,99.90
2018-05-08T03:13:29.316Z,99.90
2018-05-08T03:16:02.908Z,99.90
2018-05-08T03:18:36.473Z,99.90
2018-05-08T03:21:10.072Z,99.90
2018-05-08T03:23:43.685Z,99.90
2018-05-08T03:26:17.246Z,99.90
2018-05-08T03:28:50.824Z,99.90
2018-05-08T03:31:25.183Z,99.90
2018-05-08T03:33:58.788Z,99.90
2018-05-08T03:36:32.447Z,99.90
2018-05-08T03:39:06.022Z,99.90
2018-05-08T03:41:39.599Z,99.90
2018-05-08T03:44:13.892Z,99.90
2018-05-08T03:46:47.554Z,99.90
2018-05-08T03:49:21.160Z,99.90
2018-05-08T03:51:54.726Z,99.90
2018-05-08T03:54:28.267Z,99.90
2018-05-08T03:57:01.810Z,99.90
2018-05-08T03:59:35.497Z,99.90
2018-05-08T04:02:20.999Z,99.90
2018-05-08T04:05:06.308Z,99.90
2018-05-08T04:07:51.885Z,99.90
2018-05-08T04:10:25.461Z,99.90
2018-05-08T04:12:59.068Z,99.90
2018-05-08T04:15:32.807Z,99.90
2018-05-08T04:18:06.373Z,99.90
2018-05-08T04:20:40.005Z,99.90
2018-05-08T04:23:13.584Z,99.90
2018-05-08T04:25:47.164Z,99.90
2018-05-08T04:28:20.771Z,99.90
2018-05-08T04:30:54.268Z,99.90
2018-05-08T04:33:27.819Z,99.90
2018-05-08T04:36:02.099Z,99.90
2018-05-08T04:38:36.625Z,99.90
2018-05-08T04:41:10.310Z,99.90
2018-05-08T04:43:43.935Z,99.90
2018-05-08T04:46:17.501Z,99.90
2018-05-08T04:48:51.211Z,99.90
2018-05-08T04:51:24.960Z,99.90
2018-05-08T04:53:58.596Z,99.90
2018-05-08T04:56:32.180Z,99.90
2018-05-08T04:59:06.562Z,99.90
2018-05-08T05:01:40.988Z,99.90
2018-05-08T05:04:15.317Z,99.90
2018-05-08T05:06:49.615Z,99.90
2018-05-08T05:09:23.916Z,99.90
2018-05-08T05:11:57.733Z,99.90
2018-05-08T05:14:31.317Z,99.90
2018-05-08T05:17:04.858Z,99.90
2018-05-08T05:19:38.417Z,99.90
2018-05-08T05:22:12.037Z,99.90
2018-05-08T05:24:45.560Z,99.90
2018-05-08T05:27:19.925Z,99.90
2018-05-08T05:29:54.364Z,99.90
2018-05-08T05:32:28.030Z,99.90
2018-05-08T05:35:01.688Z,99.90
2018-05-08T05:37:35.277Z,99.90
2018-05-08T05:40:08.869Z,99.90
2018-05-08T05:42:42.613Z,99.90
2018-05-08T05:45:17.480Z,99.90
2018-05-08T05:47:51.028Z,99.90
2018-05-08T05:50:24.733Z,99.90
2018-05-08T05:52:58.297Z,99.90
2018-05-08T05:55:31.849Z,99.90
2018-05-08T05:58:05.428Z,99.90
2018-05-08T06:00:38.946Z,99.90
2018-05-08T06:03:13.274Z,99.90
2018-05-08T06:05:46.856Z,99.90
2018-05-08T06:08:20.427Z,99.90
2018-05-08T06:10:54.115Z,99.90
2018-05-08T06:13:27.608Z,99.90
2018-05-08T06:16:01.346Z,99.90
2018-05-08T06:18:34.911Z,99.90
2018-05-08T06:21:09.248Z,99.90
2018-05-08T06:23:43.559Z,99.90
2018-05-08T06:26:17.977Z,99.90
2018-05-08T06:28:51.592Z,99.90
2018-05-08T06:31:25.160Z,99.90
2018-05-08T06:33:58.780Z,99.90
2018-05-08T06:36:32.394Z,99.90
2018-05-08T06:39:06.826Z,99.90
2018-05-08T06:41:41.248Z,99.90
2018-05-08T06:44:15.771Z,99.90
2018-05-08T06:46:49.382Z,99.90
2018-05-08T06:49:23.016Z,99.90
2018-05-08T06:51:56.569Z,99.90
2018-05-08T06:54:30.968Z,99.90
2018-05-08T06:57:04.691Z,99.90
2018-05-08T06:59:38.257Z,99.90
2018-05-08T07:02:11.752Z,99.90
2018-05-08T07:04:45.289Z,99.90
2018-05-08T07:07:18.849Z,99.90
2018-05-08T07:09:52.500Z,99.90
2018-05-08T07:12:26.074Z,99.90
2018-05-08T07:14:59.709Z,99.90
2018-05-08T07:17:34.194Z,99.50
2018-05-08T07:20:07.938Z,99.50
2018-05-08T07:22:41.588Z,99.60
2018-05-08T07:25:15.145Z,98.60
2018-05-08T07:27:48.727Z,97.40
2018-05-08T07:30:22.308Z,96.90
2018-05-08T07:32:56.685Z,96.50
2018-05-08T07:35:31.062Z,97.00
2018-05-08T07:38:04.747Z,97.00
2018-05-08T07:40:38.338Z,95.90
2018-05-08T07:43:12.767Z,95.20
2018-05-08T07:45:46.448Z,95.20
2018-05-08T07:48:20.796Z,95.40
2018-05-08T07:50:54.537Z,95.10
2018-05-08T07:53:28.076Z,94.60
2018-05-08T07:56:01.615Z,93.40
2018-05-08T07:58:35.214Z,94.40
2018-05-08T08:01:08.873Z,92.80
2018-05-08T08:03:42.558Z,92.40
2018-05-08T08:06:16.026Z,91.30
2018-05-08T08:08:49.578Z,90.60
2018-05-08T08:11:23.194Z,90.30
2018-05-08T08:13:56.781Z,89.00
2018-05-08T08:16:30.499Z,88.50
2018-05-08T08:19:04.916Z,88.80
2018-05-08T08:21:38.517Z,87.80
2018-05-08T08:24:12.051Z,86.40
2018-05-08T08:26:46.340Z,83.40
2018-05-08T08:29:20.009Z,83.40
2018-05-08T08:31:53.577Z,82.20
2018-05-08T08:34:27.109Z,83.10
2018-05-08T08:37:00.658Z,81.40
2018-05-08T08:39:34.241Z,80.30
2018-05-08T08:42:07.766Z,80.60
2018-05-08T08:44:41.343Z,79.50
2018-05-08T08:47:14.950Z,79.10
2018-05-08T08:49:48.524Z,77.40
2018-05-08T08:52:22.074Z,79.60
2018-05-08T08:54:55.595Z,78.70
2018-05-08T08:57:29.117Z,78.50
2018-05-08T09:00:03.473Z,76.20
2018-05-08T09:02:37.108Z,76.20
2018-05-08T09:05:10.685Z,76.50
2018-05-08T09:07:44.250Z,76.60
2018-05-08T09:10:18.582Z,77.80
2018-05-08T09:12:52.213Z,77.60
2018-05-08T09:15:25.745Z,75.80
2018-05-08T09:17:59.308Z,76.00
2018-05-08T09:20:32.868Z,76.00
2018-05-08T09:23:06.483Z,74.80
2018-05-08T09:25:40.025Z,75.40
2018-05-08T09:28:13.582Z,76.40
2018-05-08T09:30:47.890Z,74.30
2018-05-08T09:33:21.675Z,74.40
2018-05-08T09:35:55.238Z,73.30
2018-05-08T09:38:28.776Z,72.60
2018-05-08T09:41:02.446Z,72.00
2018-05-08T09:43:36.052Z,72.20
2018-05-08T09:46:10.060Z,71.30
2018-05-08T09:48:43.860Z,69.90
2018-05-08T09:51:17.379Z,68.10
2018-05-08T09:53:50.944Z,67.40
2018-05-08T09:56:24.525Z,68.90
2018-05-08T09:58:59.031Z,67.80
2018-05-08T10:01:32.776Z,67.70
2018-05-08T10:04:07.115Z,66.10
2018-05-08T10:06:40.803Z,66.00
2018-05-08T10:09:14.354Z,66.90
2018-05-08T10:11:47.891Z,68.00
2018-05-08T10:14:21.464Z,66.50
2018-05-08T10:16:55.059Z,67.40
2018-05-08T10:19:28.648Z,65.00
2018-05-08T10:22:02.974Z,63.90
2018-05-08T10:24:36.694Z,63.70
2018-05-08T10:27:10.313Z,63.90
2018-05-08T10:29:43.845Z,63.10
2018-05-08T10:32:17.531Z,63.30
2018-05-08T10:34:51.353Z,63.30
2018-05-08T10:37:24.893Z,61.20
2018-05-08T10:39:58.460Z,62.50
2018-05-08T10:42:32.148Z,61.40
2018-05-08T10:45:05.717Z,61.60
2018-05-08T10:47:39.296Z,61.40
2018-05-08T10:50:12.891Z,61.60
2018-05-08T10:52:46.412Z,60.90
2018-05-08T10:55:20.100Z,61.00
2018-05-08T10:57:53.702Z,60.60
2018-05-08T11:00:27.200Z,60.70
2018-05-08T11:03:01.515Z,61.00
2018-05-08T11:05:35.090Z,61.00
2018-05-08T11:08:08.660Z,60.80
2018-05-08T11:10:42.220Z,61.10
2018-05-08T11:13:16.555Z,59.90
2018-05-08T11:15:50.258Z,59.90
2018-05-08T11:18:23.976Z,59.40
2018-05-08T11:20:57.543Z,60.10
2018-05-08T11:23:31.843Z,58.60
2018-05-08T11:26:05.980Z,58.50
2018-05-08T11:28:39.698Z,57.90
2018-05-08T11:31:13.266Z,58.50
2018-05-08T11:33:47.596Z,56.90
2018-05-08T11:36:21.260Z,56.90
2018-05-08T11:38:54.934Z,57.40
2018-05-08T11:41:28.473Z,57.10
2018-05-08T11:44:02.073Z,57.00
2018-05-08T11:46:35.732Z,54.80
2018-05-08T11:49:09.302Z,55.50
2018-05-08T11:51:42.827Z,54.20
2018-05-08T11:54:16.424Z,54.90
2018-05-08T11:56:50.723Z,52.90
2018-05-08T11:59:24.304Z,52.90
2018-05-08T12:01:58.619Z,52.10
2018-05-08T12:04:32.316Z,52.10
2018-05-08T12:07:06.081Z,51.90
2018-05-08T12:09:39.667Z,51.70
2018-05-08T12:12:13.406Z,50.20
2018-05-08T12:14:47.070Z,50.40
2018-05-08T12:17:20.744Z,49.80
2018-05-08T12:19:54.336Z,49.30
2018-05-08T12:22:28.667Z,47.40
2018-05-08T12:25:02.932Z,47.60
2018-05-08T12:27:36.693Z,47.60
2018-05-08T12:30:10.345Z,48.00
2018-05-08T12:32:43.924Z,47.70
2018-05-08T12:35:17.493Z,45.70
2018-05-08T12:37:51.075Z,46.00
2018-05-08T12:40:24.730Z,46.10
2018-05-08T12:42:58.276Z,45.60
2018-05-08T12:45:31.893Z,45.90
2018-05-08T12:48:05.474Z,44.80
2018-05-08T12:50:39.079Z,42.90
2018-05-08T12:53:12.683Z,45.00
2018-05-08T12:55:46.208Z,44.50
2018-05-08T12:58:20.609Z,44.00
2018-05-08T13:00:55.115Z,43.20
2018-05-08T13:03:28.736Z,43.10
2018-05-08T13:06:02.328Z,43.20
2018-05-08T13:08:35.940Z,42.30
2018-05-08T13:11:09.542Z,41.50
2018-05-08T13:13:43.120Z,41.70
2018-05-08T13:16:17.649Z,42.80
2018-05-08T13:18:51.416Z,42.70
2018-05-08T13:21:25.782Z,42.30
2018-05-08T13:23:59.388Z,42.20
2018-05-08T13:26:33.099Z,42.00
2018-05-08T13:29:06.686Z,40.40
2018-05-08T13:31:40.265Z,40.10
2018-05-08T13:34:14.014Z,39.90
2018-05-08T13:36:47.528Z,40.10
2018-05-08T13:39:21.176Z,39.70
2018-05-08T13:41:54.894Z,40.30
2018-05-08T13:44:28.386Z,39.80
2018-05-08T13:47:01.900Z,39.00
2018-05-08T13:49:35.756Z,39.20
2018-05-08T13:52:09.380Z,38.80
2018-05-08T13:54:42.998Z,37.80
2018-05-08T13:57:16.523Z,38.50
2018-05-08T13:59:50.025Z,38.30
2018-05-08T14:02:24.308Z,39.00
2018-05-08T14:04:57.810Z,38.90
2018-05-08T14:07:32.224Z,40.20
2018-05-08T14:10:05.825Z,40.10
2018-05-08T14:12:39.330Z,38.50
2018-05-08T14:15:12.905Z,37.80
2018-05-08T14:17:46.522Z,37.30
2018-05-08T14:20:20.118Z,37.30
2018-05-08T14:22:54.543Z,37.70
2018-05-08T14:25:28.379Z,37.60
2018-05-08T14:28:01.915Z,37.60
2018-05-08T14:30:36.381Z,38.90
2018-05-08T14:33:09.948Z,38.80
2018-05-08T14:35:43.492Z,39.10
2018-05-08T14:38:17.065Z,38.50
2018-05-08T14:40:51.596Z,39.50
2018-05-08T14:43:25.268Z,39.40
2018-05-08T14:45:58.831Z,39.20
2018-05-08T14:48:32.476Z,39.10
2018-05-08T14:51:06.077Z,38.70
2018-05-08T14:53:39.596Z,38.20
2018-05-08T14:56:13.221Z,38.20
2018-05-08T14:58:46.729Z,38.60
2018-05-08T15:01:20.266Z,38.30
2018-05-08T15:03:53.972Z,38.20
2018-05-08T15:06:28.326Z,38.20
2018-05-08T15:09:01.964Z,38.20
2018-05-08T15:11:35.606Z,37.90
2018-05-08T15:14:10.153Z,38.40
2018-05-08T15:16:43.855Z,38.40
2018-05-08T15:19:17.511Z,38.30
2018-05-08T15:21:51.135Z,38.50
2018-05-08T15:24:24.659Z,38.00
2018-05-08T15:26:58.287Z,38.50
2018-05-08T15:29:31.838Z,38.30
2018-05-08T15:32:05.637Z,38.40
2018-05-08T15:34:39.464Z,39.00
2018-05-08T15:37:12.966Z,40.10
2018-05-08T15:39:46.610Z,38.60
2018-05-08T15:42:20.265Z,38.60
2018-05-08T15:44:54.073Z,39.10
2018-05-08T15:47:28.385Z,38.00
2018-05-08T15:50:02.144Z,38.00
2018-05-08T15:52:36.429Z,38.50
2018-05-08T15:55:10.079Z,37.80
2018-05-08T15:57:43.535Z,38.20
2018-05-08T16:00:17.877Z,39.00
2018-05-08T16:02:51.527Z,38.50
2018-05-08T16:05:25.203Z,39.10
2018-05-08T16:07:59.651Z,39.60
2018-05-08T16:10:33.251Z,39.60
2018-05-08T16:13:06.941Z,38.90
2018-05-08T16:15:40.564Z,39.70
2018-05-08T16:18:14.340Z,39.90
2018-05-08T16:20:48.718Z,38.80
2018-05-08T16:23:22.188Z,38.80
2018-05-08T16:25:55.913Z,38.30
2018-05-08T16:28:29.399Z,38.70
2018-05-08T16:31:03.003Z,38.30
2018-05-08T16:33:36.840Z,37.80
2018-05-08T16:36:10.367Z,37.00
2018-05-08T16:38:43.910Z,36.90
2018-05-08T16:41:17.512Z,36.20
2018-05-08T16:43:51.184Z,35.60
2018-05-08T16:46:24.720Z,35.60
2018-05-08T16:48:58.328Z,35.40
2018-05-08T16:51:32.019Z,34.90
2018-05-08T16:54:05.765Z,34.90
2018-05-08T16:56:40.223Z,35.50
2018-05-08T16:59:13.793Z,35.50
2018-05-08T17:01:47.517Z,35.20
2018-05-08T17:04:22.065Z,35.70
2018-05-08T17:06:55.648Z,35.60
2018-05-08T17:09:29.217Z,35.30
2018-05-08T17:12:03.686Z,34.80
2018-05-08T17:14:37.293Z,34.80
2018-05-08T17:17:11.685Z,35.00
2018-05-08T17:19:45.267Z,34.90
2018-05-08T17:22:18.823Z,34.10
2018-05-08T17:24:52.460Z,33.20
2018-05-08T17:27:26.121Z,33.50
2018-05-08T17:30:00.508Z,33.60
2018-05-08T17:32:34.111Z,33.60
2018-05-08T17:35:07.723Z,34.10
2018-05-08T17:37:41.350Z,35.70
2018-05-08T17:40:15.860Z,36.90
2018-05-08T17:42:49.402Z,36.90
2018-05-08T17:45:23.024Z,37.60
2018-05-08T17:47:57.463Z,39.00
2018-05-08T17:50:31.183Z,38.90
2018-05-08T17:53:05.004Z,40.20
2018-05-08T17:55:39.488Z,42.30
2018-05-08T17:58:13.231Z,42.20
2018-05-08T18:00:46.797Z,41.90
2018-05-08T18:03:20.308Z,43.30
2018-05-08T18:05:53.951Z,42.30
2018-05-08T18:08:28.224Z,42.10
2018-05-08T18:11:01.791Z,42.00
2018-05-08T18:13:35.306Z,42.60
2018-05-08T18:16:08.813Z,43.00
2018-05-08T18:18:42.349Z,43.70
2018-05-08T18:21:15.920Z,43.90
2018-05-08T18:23:49.507Z,45.00
2018-05-08T18:26:23.028Z,46.80
2018-05-08T18:28:56.715Z,47.70
2018-05-08T18:31:30.326Z,48.50
2018-05-08T18:34:03.871Z,49.20
2018-05-08T18:36:37.446Z,49.70
2018-05-08T18:39:11.103Z,50.40
2018-05-08T18:41:44.654Z,50.50
2018-05-08T18:44:18.184Z,51.40
2018-05-08T18:46:51.716Z,51.20
2018-05-08T18:49:25.373Z,51.50
2018-05-08T18:51:58.895Z,51.70
2018-05-08T18:54:32.435Z,51.80
2018-05-08T18:57:06.014Z,52.00
2018-05-08T18:59:39.712Z,52.10
2018-05-08T19:02:13.226Z,52.60
2018-05-08T19:04:46.797Z,52.90
2018-05-08T19:07:20.407Z,53.40
2018-05-08T19:09:53.942Z,53.60
2018-05-08T19:12:27.523Z,54.10
2018-05-08T19:15:06.825Z,54.10
2018-05-08T19:17:41.243Z,55.20
2018-05-08T19:20:14.852Z,55.10
2018-05-08T19:22:48.453Z,54.80
2018-05-08T19:25:22.069Z,55.50
2018-05-08T19:28:01.291Z,55.40
2018-05-08T19:30:34.831Z,55.70
2018-05-08T19:33:08.411Z,55.40
2018-05-08T19:35:47.660Z,55.20
2018-05-08T19:38:22.155Z,55.30
2018-05-08T19:40:55.872Z,54.80
2018-05-08T19:43:29.433Z,54.80
2018-05-08T19:46:03.071Z,54.80
2018-05-08T19:48:36.751Z,55.20
2018-05-08T19:51:10.296Z,55.20
2018-05-08T19:53:43.951Z,55.40
2018-05-08T19:56:18.017Z,56.20
2018-05-08T19:58:51.603Z,56.30
2018-05-08T20:01:25.304Z,56.30
2018-05-08T20:03:58.859Z,56.60
2018-05-08T20:06:32.508Z,57.10
2018-05-08T20:09:06.141Z,57.30
2018-05-08T20:11:39.867Z,56.80
2018-05-08T20:14:13.616Z,56.60
2018-05-08T20:16:47.338Z,57.10
2018-05-08T20:19:21.092Z,56.90
2018-05-08T20:21:54.646Z,56.50
2018-05-08T20:24:28.399Z,56.80
2018-05-08T20:27:01.917Z,57.00
2018-05-08T20:29:35.512Z,57.90
2018-05-08T20:32:09.197Z,58.10
2018-05-08T20:34:42.787Z,58.80
2018-05-08T20:37:17.121Z,59.10
2018-05-08T20:39:50.829Z,59.00
2018-05-08T20:42:24.540Z,58.60
2018-05-08T20:44:58.115Z,58.50
2018-05-08T20:47:33.401Z,59.10
2018-05-08T20:50:07.187Z,59.20
2018-05-08T20:52:40.705Z,59.10
2018-05-08T20:55:14.263Z,59.00
2018-05-08T20:57:47.807Z,59.40
2018-05-08T21:00:21.364Z,59.50
2018-05-08T21:02:55.687Z,59.80
2018-05-08T21:05:29.207Z,59.70
2018-05-08T21:08:02.811Z,60.40
2018-05-08T21:10:37.122Z,61.40
2018-05-08T21:13:10.694Z,61.40
2018-05-08T21:15:44.244Z,61.80
2018-05-08T21:18:18.641Z,62.50
2018-05-08T21:20:52.235Z,62.40
2018-05-08T21:23:25.801Z,62.90
2018-05-08T21:26:00.150Z,63.40
2018-05-08T21:28:39.539Z,63.20
2018-05-08T21:31:14.190Z,63.60
2018-05-08T21:33:47.920Z,63.90
2018-05-08T21:36:22.239Z,64.50
2018-05-08T21:38:55.939Z,64.30
2018-05-08T21:41:29.438Z,65.10
2018-05-08T21:44:03.748Z,64.90
2018-05-08T21:46:37.588Z,64.80
2018-05-08T21:49:11.131Z,65.50
2018-05-08T21:51:44.720Z,65.60
2018-05-08T21:54:18.339Z,65.50
2018-05-08T21:56:51.851Z,66.20
2018-05-08T21:59:25.372Z,67.50
2018-05-08T22:01:58.938Z,68.70
2018-05-08T22:04:32.453Z,69.80
2018-05-08T22:07:05.969Z,70.80
2018-05-08T22:09:39.549Z,71.10
2018-05-08T22:12:13.106Z,71.30
2018-05-08T22:14:46.677Z,72.10
2018-05-08T22:17:20.307Z,72.70
2018-05-08T22:19:53.935Z,71.80
2018-05-08T22:22:28.280Z,72.00
2018-05-08T22:25:01.792Z,71.90
2018-05-08T22:27:36.085Z,72.50
2018-05-08T22:30:09.800Z,72.40
2018-05-08T22:32:44.258Z,73.10
2018-05-08T22:35:17.976Z,73.50
2018-05-08T22:37:52.315Z,72.20
2018-05-08T22:40:26.017Z,72.00
2018-05-08T22:42:59.620Z,73.40
2018-05-08T22:45:33.195Z,74.20
2018-05-08T22:48:06.827Z,74.20
2018-05-08T22:50:40.348Z,73.60
2018-05-08T22:53:14.649Z,72.50
2018-05-08T22:55:48.339Z,72.40
2018-05-08T22:58:21.890Z,74.00
2018-05-08T23:00:55.435Z,73.80
2018-05-08T23:03:29.771Z,75.40
2018-05-08T23:06:04.139Z,75.30
2018-05-08T23:08:38.403Z,77.70
2018-05-08T23:11:12.067Z,77.70
2018-05-08T23:13:45.591Z,78.10
2018-05-08T23:16:19.137Z,77.50
2018-05-08T23:18:52.695Z,78.60
2018-05-08T23:21:27.017Z,79.10
2018-05-08T23:24:00.731Z,78.20
2018-05-08T23:26:34.988Z,78.40
2018-05-08T23:29:08.736Z,78.30
2018-05-08T23:31:42.230Z,79.00
2018-05-08T23:34:15.765Z,79.80
2018-05-08T23:36:50.056Z,80.20
2018-05-08T23:39:23.731Z,80.20
2018-05-08T23:41:57.252Z,79.50
2018-05-08T23:44:30.770Z,81.40
2018-05-08T23:47:04.279Z,82.90
2018-05-08T23:49:37.864Z,81.70
2018-05-08T23:52:11.432Z,81.20
2018-05-08T23:54:45.879Z,82.70
2018-05-08T23:57:20.202Z,84.00
2018-05-08T23:59:53.858Z,83.90
